»·PEaware :: TEXAN33 KRND-KRND

TEXAN33 :: KRND-KRND

FLIGHT INFORMATION

Flight Status: Arrived
Operator: Unknown
More flights by this operator :: More flights under this callsign
Pilot: Indie I. (23354)
Aircraft: BEECH AIRCRAFT T-6A TEXAN
(TEX2)
More flights by this aircraft type
Origin: KRND Randolph AFB
United States
Destination: KRND Randolph AFB
United States
More flights between these airports :: More routes between these airports
Route: KRND KPEZ KRND
File this flight plan on PilotEdge
Remarks:
Altitude:
(Current/Filed)
4,500ft
Speed:
(Current/Filed)
200kts
Departed: 03-Sep-20 05:13 AM
Arrived: 03-Sep-20 05:43 AM
Distance/Time
Traveled:
14nm/0:30
Distance/Time
To Go:
Arrived

Flight Plot

Page will automatically refresh every two minutes.

Flight plan parsing failed; only flown route is shown


Map Options




Map Legend


Flown Route
Filed Route
Departure Airport
Arrival Airport
Navaid (VOR, NDB)
Fix

Horizontal Profiles

Position Reports

Time Latitude Longitude Heading Altitude Ground
Speed
03-Sep-20 05:02 29.534817 -98.291553 149 765ft 0kts
03-Sep-20 05:03 29.534815 -98.291551 149 765ft 0kts
03-Sep-20 05:04 29.534812 -98.291550 149 765ft 0kts
03-Sep-20 05:05 29.534810 -98.291548 149 765ft 0kts
03-Sep-20 05:06 29.534807 -98.291547 149 765ft 0kts
03-Sep-20 05:07 29.534805 -98.291545 149 765ft 0kts
03-Sep-20 05:08 29.534803 -98.291543 149 765ft 0kts
03-Sep-20 05:09 29.534800 -98.291542 149 765ft 0kts
03-Sep-20 05:10 29.534798 -98.291540 149 765ft 0kts
03-Sep-20 05:11 29.534554 -98.292952 214 765ft 10kts
03-Sep-20 05:12 29.508654 -98.276418 156 1300ft 207kts
03-Sep-20 05:13 29.446714 -98.270918 178 2712ft 267kts
03-Sep-20 05:14 29.376571 -98.272399 175 4597ft 252kts
03-Sep-20 05:15 29.332291 -98.270747 180 4525ft 233kts
03-Sep-20 05:16 29.332291 -98.270747 180 4525ft 233kts
03-Sep-20 05:17 29.317083 -98.271883 194 4535ft 231kts
03-Sep-20 05:18 29.258782 -98.301550 211 4522ft 229kts
03-Sep-20 05:19 29.207485 -98.344075 214 4536ft 229kts
03-Sep-20 05:20 29.154048 -98.383984 211 4497ft 229kts
03-Sep-20 05:21 29.098826 -98.420800 213 4473ft 228kts
03-Sep-20 05:22 29.047161 -98.463180 223 4292ft 235kts
03-Sep-20 05:23 29.009927 -98.518368 242 3865ft 201kts
03-Sep-20 05:24 28.965426 -98.524045 162 815ft 164kts
03-Sep-20 05:25 28.946331 -98.533129 353 1647ft 191kts
03-Sep-20 05:26 28.965769 -98.524059 170 623ft 128kts
03-Sep-20 05:27 28.933739 -98.523893 270 1359ft 189kts
03-Sep-20 05:28 28.992492 -98.534774 4 2765ft 219kts
03-Sep-20 05:29 29.041968 -98.503583 81 5348ft 235kts
03-Sep-20 05:31 29.092694 -98.462137 23 5434ft 241kts
03-Sep-20 05:32 29.152477 -98.430572 26 5498ft 234kts
03-Sep-20 05:33 29.211790 -98.401489 6 5466ft 235kts
03-Sep-20 05:34 29.275006 -98.387317 15 5562ft 237kts
03-Sep-20 05:35 29.337506 -98.363748 22 5160ft 248kts
03-Sep-20 05:36 29.394484 -98.337399 16 2621ft 211kts
03-Sep-20 05:37 29.449691 -98.315030 20 1682ft 215kts
03-Sep-20 05:38 29.501284 -98.330436 27 1830ft 209kts
03-Sep-20 05:39 29.553160 -98.346169 330 1851ft 216kts
03-Sep-20 05:40 29.544920 -98.299835 149 1808ft 211kts
03-Sep-20 05:41 29.535502 -98.306898 336 1707ft 136kts
03-Sep-20 05:42 29.531172 -98.290673 150 766ft 95kts
03-Sep-20 05:43 29.528640 -98.286942 328 765ft 34kts
03-Sep-20 05:44 29.534877 -98.291608 219 765ft 4kts
03-Sep-20 05:45 29.534765 -98.291638 183 765ft 0kts
03-Sep-20 05:46 29.534765 -98.291638 183 765ft 0kts
03-Sep-20 05:47 29.534765 -98.291638 183 765ft 0kts
03-Sep-20 05:48 29.534765 -98.291638 183 765ft 0kts
03-Sep-20 05:49 29.534765 -98.291638 183 765ft 0kts
03-Sep-20 05:49 29.534765 -98.291638 183 765ft 0kts
03-Sep-20 05:51 29.534765 -98.291638 183 765ft 0kts
03-Sep-20 05:51 29.534546 -98.291921 271 765ft 0kts
03-Sep-20 05:52 29.533225 -98.292113 150 765ft 51kts
03-Sep-20 05:54 29.478492 -98.275277 179 2236ft 233kts
03-Sep-20 05:54 29.422722 -98.280873 194 3911ft 235kts
03-Sep-20 05:55 29.366388 -98.315920 215 4577ft 224kts
03-Sep-20 05:56 29.314533 -98.357757 214 4513ft 231kts

Navigation Log

Ident Type
Flight plan parsing failed, navigation log unavailable